Leedale, Texas
Current Conditions -  °F | °C
As of 9:55 PM on Saturday 24 Jan 2015 (Local Time) from KT35 Reporting Station
Clear Clear  
Wind Chill: 51°   Ceiling: Unl
Heat Index: 51°   Visibility: 10mi
Dew Point: 37°   Wind: 8mph
Humidity: 59%   Direction: 210°SSW
Pressure: 30.07"   Gusts: NA
Location:  30.9683°N, 97.2213°W
Report Text: KT35 250355Z AUTO 21007KT 10SM CLR 10/03 A3007 RMK AO2 T01030027
Loading
Personal Weather Stations






























Interactive Weather Map New forecast layout! Learn more

10-Day Weather Forecast

Advertisements
Track Severe Weather on mobile